createdAt,value
2016-04-30T00:00:37.991Z,0
2016-04-30T00:01:38.103Z,0
2016-04-30T00:02:38.074Z,0
2016-04-30T00:03:39.076Z,0
2016-04-30T00:04:37.908Z,0
2016-04-30T00:05:37.848Z,0
2016-04-30T00:06:37.976Z,0
2016-04-30T00:07:37.947Z,0
2016-04-30T00:08:37.934Z,0
2016-04-30T00:09:37.749Z,0
2016-04-30T00:10:37.893Z,0
2016-04-30T00:11:37.707Z,0
2016-04-30T00:12:37.820Z,0
2016-04-30T00:13:37.635Z,0
2016-04-30T00:14:37.779Z,0
2016-04-30T00:15:37.734Z,0
2016-04-30T00:16:37.565Z,0
2016-04-30T00:17:37.692Z,0
2016-04-30T00:18:38.867Z,0
2016-04-30T00:19:37.636Z,0
2016-04-30T00:20:37.623Z,0
2016-04-30T00:21:37.578Z,0
2016-04-30T00:22:37.550Z,0
2016-04-30T00:23:37.553Z,0
2016-04-30T00:24:37.336Z,0
2016-04-30T00:25:37.325Z,0
2016-04-30T00:26:37.467Z,0
2016-04-30T00:27:37.267Z,0
2016-04-30T00:28:37.238Z,0
2016-04-30T00:29:37.210Z,0
2016-04-30T00:30:37.368Z,0
2016-04-30T00:31:37.169Z,0
2016-04-30T00:32:37.296Z,0
2016-04-30T00:33:36.955Z,0
2016-04-30T00:34:37.238Z,0
2016-04-30T00:35:37.194Z,0
2016-04-30T00:36:37.025Z,0
2016-04-30T00:37:37.153Z,0
2016-04-30T00:38:36.968Z,0
2016-04-30T00:39:36.939Z,0
2016-04-30T00:40:37.067Z,0
2016-04-30T00:41:37.038Z,0
2016-04-30T00:42:36.870Z,0
2016-04-30T00:43:36.841Z,0
2016-04-30T00:44:36.812Z,0
2016-04-30T00:45:36.924Z,0
2016-04-30T00:46:36.912Z,0
2016-04-30T00:47:36.883Z,0
2016-04-30T00:48:37.011Z,0
2016-04-30T00:49:36.842Z,0
2016-04-30T00:50:36.656Z,0
2016-04-30T00:51:36.800Z,0
2016-04-30T00:52:36.756Z,0
2016-04-30T00:53:36.712Z,0
2016-04-30T00:54:36.683Z,0
2016-04-30T00:55:36.670Z,0
2016-04-30T00:56:36.485Z,0
2016-04-30T00:57:36.613Z,0
2016-04-30T00:58:36.584Z,0
2016-04-30T00:59:36.400Z,0
2016-04-30T01:00:36.371Z,0
2016-04-30T01:01:36.499Z,0
2016-04-30T01:02:36.313Z,0
2016-04-30T01:03:36.567Z,0
2016-04-30T01:04:36.413Z,0
2016-04-30T01:05:36.274Z,0
2016-04-30T01:06:36.372Z,0
2016-04-30T01:07:36.343Z,0
2016-04-30T01:08:36.174Z,0
2016-04-30T01:09:36.129Z,0
2016-04-30T01:10:36.101Z,0
2016-04-30T01:11:36.229Z,0
2016-04-30T01:12:36.216Z,0
2016-04-30T01:13:36.015Z,0
2016-04-30T01:14:36.143Z,0
2016-04-30T01:15:36.115Z,0
2016-04-30T01:16:36.101Z,0
2016-04-30T01:17:36.073Z,0
2016-04-30T01:18:35.748Z,0
2016-04-30T01:19:35.890Z,0
2016-04-30T01:20:35.987Z,0
2016-04-30T01:21:35.818Z,0
2016-04-30T01:22:35.773Z,0
2016-04-30T01:23:35.917Z,0
2016-04-30T01:24:35.873Z,0
2016-04-30T01:25:35.860Z,0
2016-04-30T01:26:35.675Z,0
2016-04-30T01:27:35.819Z,0
2016-04-30T01:28:35.774Z,0
2016-04-30T01:29:35.746Z,0
2016-04-30T01:30:35.716Z,0
2016-04-30T01:31:35.688Z,0
2016-04-30T01:32:35.676Z,0
2016-04-30T01:33:35.757Z,0
2016-04-30T01:34:35.619Z,0
2016-04-30T01:35:35.590Z,0
2016-04-30T01:36:35.561Z,0
2016-04-30T01:37:35.533Z,0
2016-04-30T01:38:35.520Z,0
2016-04-30T01:39:35.476Z,0
2016-04-30T01:40:35.291Z,0
2016-04-30T01:41:35.418Z,0
2016-04-30T01:42:35.390Z,0
2016-04-30T01:43:35.221Z,0
2016-04-30T01:44:35.193Z,0
2016-04-30T01:45:35.321Z,0
2016-04-30T01:46:35.292Z,0
2016-04-30T01:47:35.278Z,0
2016-04-30T01:48:36.250Z,0
2016-04-30T01:49:35.237Z,0
2016-04-30T01:50:35.177Z,0
2016-04-30T01:51:35.165Z,0
2016-04-30T01:52:34.995Z,0
2016-04-30T01:53:35.107Z,0
2016-04-30T01:54:35.078Z,0
2016-04-30T01:55:35.050Z,0
2016-04-30T01:56:35.022Z,0
2016-04-30T01:57:35.008Z,0
2016-04-30T01:58:34.980Z,0
2016-04-30T01:59:34.795Z,0
2016-04-30T02:00:34.767Z,0
2016-04-30T02:01:34.894Z,0
2016-04-30T02:02:34.866Z,0
2016-04-30T02:03:35.056Z,0
2016-04-30T02:04:34.653Z,0
2016-04-30T02:05:34.796Z,0
2016-04-30T02:06:34.596Z,0
2016-04-30T02:07:34.566Z,0
2016-04-30T02:08:34.726Z,0
2016-04-30T02:09:34.666Z,0
2016-04-30T02:10:34.668Z,0
2016-04-30T02:11:34.468Z,0
2016-04-30T02:12:34.612Z,0
2016-04-30T02:13:34.568Z,0
2016-04-30T02:14:34.398Z,0
2016-04-30T02:15:34.369Z,0
2016-04-30T02:16:34.340Z,0
2016-04-30T02:17:34.501Z,0
2016-04-30T02:18:36.065Z,0
2016-04-30T02:19:34.412Z,0
2016-04-30T02:20:34.242Z,0
2016-04-30T02:21:34.370Z,0
2016-04-30T02:22:34.185Z,0
2016-04-30T02:23:34.157Z,0
2016-04-30T02:24:34.269Z,0
2016-04-30T02:25:34.256Z,0
2016-04-30T02:26:34.227Z,0
2016-04-30T02:27:34.214Z,0
2016-04-30T02:28:34.014Z,0
2016-04-30T02:29:34.157Z,0
2016-04-30T02:30:33.973Z,0
2016-04-30T02:31:33.928Z,0
2016-04-30T02:32:34.072Z,0
2016-04-30T02:33:34.043Z,0
2016-04-30T02:34:34.202Z,0
2016-04-30T02:35:33.985Z,0
2016-04-30T02:36:33.988Z,0
2016-04-30T02:37:33.929Z,0
2016-04-30T02:38:33.760Z,0
2016-04-30T02:39:33.871Z,0
2016-04-30T02:40:33.858Z,0
2016-04-30T02:41:33.830Z,0
2016-04-30T02:42:33.801Z,0
2016-04-30T02:43:33.788Z,0
2016-04-30T02:44:33.760Z,0
2016-04-30T02:45:33.560Z,0
2016-04-30T02:46:33.703Z,0
2016-04-30T02:47:33.674Z,0
2016-04-30T02:48:33.489Z,0
2016-04-30T02:49:33.493Z,0
2016-04-30T02:50:33.589Z,0
2016-04-30T02:51:33.560Z,0
2016-04-30T02:52:33.531Z,0
2016-04-30T02:53:33.518Z,0
2016-04-30T02:54:33.333Z,0
2016-04-30T02:55:33.461Z,0
2016-04-30T02:56:33.418Z,0
2016-04-30T02:57:32.951Z,0
2016-04-30T02:58:33.376Z,0
2016-04-30T02:59:33.347Z,0
2016-04-30T03:00:33.318Z,0
2016-04-30T03:01:33.274Z,0
2016-04-30T03:02:32.808Z,0
2016-04-30T03:03:33.249Z,0
2016-04-30T03:04:33.064Z,0
2016-04-30T03:05:33.191Z,0
2016-04-30T03:06:33.163Z,0
2016-04-30T03:07:32.978Z,0
2016-04-30T03:08:33.106Z,0
2016-04-30T03:09:33.077Z,0
2016-04-30T03:10:33.049Z,0
2016-04-30T03:11:33.035Z,0
2016-04-30T03:12:32.851Z,0
2016-04-30T03:13:32.963Z,0
2016-04-30T03:14:32.965Z,0
2016-04-30T03:15:32.922Z,0
2016-04-30T03:16:32.893Z,0
2016-04-30T03:17:32.724Z,0
2016-04-30T03:18:32.835Z,0
2016-04-30T03:19:32.823Z,0
2016-04-30T03:20:32.778Z,0
2016-04-30T03:21:32.765Z,0
2016-04-30T03:22:32.721Z,0
2016-04-30T03:23:32.709Z,0
2016-04-30T03:24:32.680Z,0
2016-04-30T03:25:32.652Z,0
2016-04-30T03:26:32.639Z,0
2016-04-30T03:27:32.438Z,0
2016-04-30T03:28:32.425Z,0
2016-04-30T03:29:32.553Z,0
2016-04-30T03:30:32.384Z,0
2016-04-30T03:31:32.339Z,0
2016-04-30T03:32:32.532Z,0
2016-04-30T03:33:32.540Z,0
2016-04-30T03:34:32.566Z,0
2016-04-30T03:35:32.574Z,0
2016-04-30T03:36:32.614Z,4
2016-04-30T03:37:32.607Z,4
2016-04-30T03:38:32.440Z,4
2016-04-30T03:39:32.587Z,0
2016-04-30T03:40:32.577Z,4
2016-04-30T03:41:32.427Z,4
2016-04-30T03:42:32.562Z,4
2016-04-30T03:43:32.525Z,8
2016-04-30T03:44:32.519Z,4
2016-04-30T03:45:32.513Z,8
2016-04-30T03:46:32.476Z,8
2016-04-30T03:47:32.434Z,12
2016-04-30T03:48:32.439Z,16
2016-04-30T03:49:33.617Z,16
2016-04-30T03:50:32.372Z,20
2016-04-30T03:51:32.347Z,24
2016-04-30T03:52:32.367Z,24
2016-04-30T03:53:31.995Z,28
2016-04-30T03:54:32.124Z,24
2016-04-30T03:55:32.236Z,28
2016-04-30T03:56:32.223Z,32
2016-04-30T03:57:32.195Z,28
2016-04-30T03:58:32.184Z,32
2016-04-30T03:59:32.154Z,32
2016-04-30T04:00:32.127Z,32
2016-04-30T04:01:32.083Z,36
2016-04-30T04:02:31.899Z,40
2016-04-30T04:03:32.027Z,40
2016-04-30T04:04:31.716Z,40
2016-04-30T04:05:31.828Z,48
2016-04-30T04:06:31.815Z,48
2016-04-30T04:07:31.926Z,52
2016-04-30T04:08:31.899Z,56
2016-04-30T04:09:31.730Z,60
2016-04-30T04:10:31.717Z,64
2016-04-30T04:11:31.516Z,68
2016-04-30T04:12:31.800Z,80
2016-04-30T04:13:31.615Z,100
2016-04-30T04:14:31.587Z,108
2016-04-30T04:15:31.574Z,124
2016-04-30T04:16:31.701Z,136
2016-04-30T04:17:31.517Z,140
2016-04-30T04:18:31.644Z,144
2016-04-30T04:19:31.725Z,164
2016-04-30T04:20:31.431Z,176
2016-04-30T04:21:31.559Z,184
2016-04-30T04:22:31.530Z,192
2016-04-30T04:23:31.361Z,184
2016-04-30T04:24:31.175Z,236
2016-04-30T04:25:31.460Z,256
2016-04-30T04:26:31.275Z,260
2016-04-30T04:27:31.231Z,276
2016-04-30T04:28:31.375Z,288
2016-04-30T04:29:31.346Z,300
2016-04-30T04:30:31.317Z,308
2016-04-30T04:31:31.288Z,320
2016-04-30T04:32:31.260Z,348
2016-04-30T04:33:31.231Z,380
2016-04-30T04:34:32.657Z,420
2016-04-30T04:35:31.018Z,456
2016-04-30T04:36:31.146Z,484
2016-04-30T04:37:31.133Z,496
2016-04-30T04:38:31.120Z,512
2016-04-30T04:39:30.920Z,532
2016-04-30T04:40:31.048Z,540
2016-04-30T04:41:31.034Z,528
2016-04-30T04:42:30.990Z,528
2016-04-30T04:43:30.977Z,548
2016-04-30T04:44:30.792Z,584
2016-04-30T04:45:30.920Z,636
2016-04-30T04:46:30.735Z,680
2016-04-30T04:47:30.692Z,720
2016-04-30T04:48:30.834Z,780
2016-04-30T04:49:30.540Z,836
2016-04-30T04:50:30.620Z,856
2016-04-30T04:51:30.748Z,840
2016-04-30T04:52:30.579Z,800
2016-04-30T04:53:30.395Z,756
2016-04-30T04:54:30.678Z,712
2016-04-30T04:55:30.494Z,672
2016-04-30T04:56:30.621Z,624
2016-04-30T04:57:30.593Z,580
2016-04-30T04:58:30.408Z,552
2016-04-30T04:59:30.395Z,536
2016-04-30T05:00:30.367Z,536
2016-04-30T05:01:30.479Z,536
2016-04-30T05:02:30.310Z,552
2016-04-30T05:03:30.312Z,572
2016-04-30T05:04:30.440Z,604
2016-04-30T05:05:30.380Z,636
2016-04-30T05:06:30.196Z,676
2016-04-30T05:07:30.182Z,716
2016-04-30T05:08:30.138Z,760
2016-04-30T05:09:29.968Z,792
2016-04-30T05:10:30.237Z,812
2016-04-30T05:11:30.224Z,828
2016-04-30T05:12:30.212Z,848
2016-04-30T05:13:30.167Z,876
2016-04-30T05:14:30.139Z,900
2016-04-30T05:15:29.970Z,916
2016-04-30T05:16:30.097Z,956
2016-04-30T05:17:29.912Z,1004
2016-04-30T05:18:30.040Z,1060
2016-04-30T05:19:30.059Z,1120
2016-04-30T05:20:29.826Z,1176
2016-04-30T05:21:29.658Z,1240
2016-04-30T05:22:29.925Z,1304
2016-04-30T05:23:29.741Z,1368
2016-04-30T05:24:29.869Z,1440
2016-04-30T05:25:29.684Z,1520
2016-04-30T05:26:29.671Z,1608
2016-04-30T05:27:29.783Z,1692
2016-04-30T05:28:29.614Z,1760
2016-04-30T05:29:29.741Z,1804
2016-04-30T05:30:29.713Z,1832
2016-04-30T05:31:29.685Z,1868
2016-04-30T05:32:29.513Z,1920
2016-04-30T05:33:29.658Z,1972
2016-04-30T05:34:29.614Z,2004
2016-04-30T05:35:29.427Z,2012
2016-04-30T05:36:29.554Z,2016
2016-04-30T05:37:29.386Z,2024
2016-04-30T05:38:29.497Z,2036
2016-04-30T05:39:29.469Z,2024
2016-04-30T05:40:29.471Z,1996
2016-04-30T05:41:29.427Z,1964
2016-04-30T05:42:29.257Z,1920
2016-04-30T05:43:29.214Z,1868
2016-04-30T05:44:29.045Z,1832
2016-04-30T05:45:29.188Z,1824
2016-04-30T05:46:29.301Z,1828
2016-04-30T05:47:28.959Z,1864
2016-04-30T05:48:29.228Z,1928
2016-04-30T05:49:29.559Z,2004
2016-04-30T05:50:29.186Z,2088
2016-04-30T05:51:29.017Z,2180
2016-04-30T05:52:28.988Z,2276
2016-04-30T05:53:28.959Z,2348
2016-04-30T05:54:29.072Z,2392
2016-04-30T05:55:29.058Z,2412
2016-04-30T05:56:28.889Z,2432
2016-04-30T05:57:29.002Z,2468
2016-04-30T05:58:28.833Z,2504
2016-04-30T05:59:28.804Z,2528
2016-04-30T06:00:28.776Z,2548
2016-04-30T06:01:28.746Z,2628
2016-04-30T06:02:28.874Z,2772
2016-04-30T06:03:28.690Z,2944
2016-04-30T06:04:28.817Z,3108
2016-04-30T06:05:28.649Z,3232
2016-04-30T06:06:28.776Z,3356
2016-04-30T06:07:28.747Z,3512
2016-04-30T06:08:28.735Z,3680
2016-04-30T06:09:28.549Z,3844
2016-04-30T06:10:28.662Z,4024
2016-04-30T06:11:28.633Z,4236
2016-04-30T06:12:28.449Z,4480
2016-04-30T06:13:28.591Z,4772
2016-04-30T06:14:28.563Z,5120
2016-04-30T06:15:28.534Z,5424
2016-04-30T06:16:28.506Z,5572
2016-04-30T06:17:28.493Z,5616
2016-04-30T06:18:28.448Z,5568
2016-04-30T06:19:28.279Z,5416
2016-04-30T06:20:28.407Z,5248
2016-04-30T06:21:28.379Z,5168
2016-04-30T06:22:28.365Z,5152
2016-04-30T06:23:28.175Z,5228
2016-04-30T06:24:28.319Z,5340
2016-04-30T06:25:28.274Z,5432
2016-04-30T06:26:28.246Z,5468
2016-04-30T06:27:28.233Z,5484
2016-04-30T06:28:28.205Z,5456
2016-04-30T06:29:28.175Z,5364
2016-04-30T06:30:28.147Z,5276
2016-04-30T06:31:28.135Z,5268
2016-04-30T06:32:28.106Z,5340
2016-04-30T06:33:27.921Z,5432
2016-04-30T06:34:27.783Z,5548
2016-04-30T06:35:28.004Z,5716
2016-04-30T06:36:27.991Z,5952
2016-04-30T06:37:27.807Z,6180
2016-04-30T06:38:27.793Z,6284
2016-04-30T06:39:27.624Z,6320
2016-04-30T06:40:27.893Z,6400
2016-04-30T06:41:27.724Z,6576
2016-04-30T06:42:27.695Z,6772
2016-04-30T06:43:27.807Z,6876
2016-04-30T06:44:27.809Z,6800
2016-04-30T06:45:27.765Z,6640
2016-04-30T06:46:27.737Z,6512
2016-04-30T06:47:27.552Z,6464
2016-04-30T06:48:27.555Z,6400
2016-04-30T06:49:29.511Z,6320
2016-04-30T06:50:27.482Z,6228
2016-04-30T06:51:27.626Z,6180
2016-04-30T06:52:27.581Z,6200
2016-04-30T06:53:27.411Z,6292
2016-04-30T06:54:27.540Z,6380
2016-04-30T06:55:27.512Z,6440
2016-04-30T06:56:27.483Z,6472
2016-04-30T06:57:27.313Z,6456
2016-04-30T06:58:27.128Z,6468
2016-04-30T06:59:27.256Z,6608
2016-04-30T07:00:27.244Z,6876
2016-04-30T07:01:27.231Z,7280
2016-04-30T07:02:27.171Z,7932
2016-04-30T07:03:27.314Z,8580
2016-04-30T07:04:27.177Z,9004
2016-04-30T07:05:27.116Z,9316
2016-04-30T07:06:27.228Z,9640
2016-04-30T07:07:27.060Z,9928
2016-04-30T07:08:27.187Z,10236
2016-04-30T07:09:27.158Z,10532
2016-04-30T07:10:26.990Z,10800
2016-04-30T07:11:27.117Z,10920
2016-04-30T07:12:26.948Z,10908
2016-04-30T07:13:26.904Z,10824
2016-04-30T07:14:26.875Z,10988
2016-04-30T07:15:27.018Z,11120
2016-04-30T07:16:26.990Z,11200
2016-04-30T07:17:26.977Z,11244
2016-04-30T07:18:26.948Z,11228
2016-04-30T07:19:26.998Z,11144
2016-04-30T07:20:26.750Z,11060
2016-04-30T07:21:26.722Z,10816
2016-04-30T07:22:26.693Z,10540
2016-04-30T07:23:26.665Z,10180
2016-04-30T07:24:26.792Z,9780
2016-04-30T07:25:26.623Z,9428
2016-04-30T07:26:26.595Z,9204
2016-04-30T07:27:26.722Z,9136
2016-04-30T07:28:26.709Z,9172
2016-04-30T07:29:26.525Z,9228
2016-04-30T07:30:26.653Z,9276
2016-04-30T07:31:26.483Z,9408
2016-04-30T07:32:26.611Z,9684
2016-04-30T07:33:26.582Z,9992
2016-04-30T07:34:28.100Z,10272
2016-04-30T07:35:26.557Z,10632
2016-04-30T07:36:26.356Z,11088
2016-04-30T07:37:26.327Z,11380
2016-04-30T07:38:26.299Z,11692
2016-04-30T07:39:26.443Z,12060
2016-04-30T07:40:26.413Z,12416
2016-04-30T07:41:26.244Z,12664
2016-04-30T07:42:26.372Z,12868
2016-04-30T07:43:26.343Z,13000
2016-04-30T07:44:26.315Z,13048
2016-04-30T07:45:25.990Z,13232
2016-04-30T07:46:26.273Z,13552
2016-04-30T07:47:26.245Z,13716
2016-04-30T07:48:26.076Z,13768
2016-04-30T07:49:26.626Z,13872
2016-04-30T07:50:26.018Z,13928
2016-04-30T07:51:26.162Z,14216
2016-04-30T07:52:26.133Z,14688
2016-04-30T07:53:26.105Z,14956
2016-04-30T07:54:26.076Z,15400
2016-04-30T07:55:25.907Z,15932
2016-04-30T07:56:26.034Z,16628
2016-04-30T07:57:26.006Z,17368
2016-04-30T07:58:25.994Z,17928
2016-04-30T07:59:25.964Z,17828
2016-04-30T08:00:25.795Z,18496
2016-04-30T08:01:25.923Z,19008
2016-04-30T08:02:25.754Z,19360
2016-04-30T08:03:25.866Z,19904
2016-04-30T08:04:26.275Z,19968
2016-04-30T08:05:25.527Z,20000
2016-04-30T08:06:25.671Z,18656
2016-04-30T08:07:25.798Z,17368
2016-04-30T08:08:25.771Z,17352
2016-04-30T08:09:25.758Z,17356
2016-04-30T08:10:25.572Z,17404
2016-04-30T08:11:25.699Z,17064
2016-04-30T08:12:25.671Z,16768
2016-04-30T08:13:25.518Z,16040
2016-04-30T08:14:25.645Z,16668
2016-04-30T08:15:25.632Z,17324
2016-04-30T08:16:25.620Z,17828
2016-04-30T08:17:25.263Z,18560
2016-04-30T08:18:25.406Z,17856
2016-04-30T08:19:26.784Z,18848
2016-04-30T08:20:25.349Z,21120
2016-04-30T08:21:25.492Z,20864
2016-04-30T08:22:25.464Z,20864
2016-04-30T08:23:25.295Z,20544
2016-04-30T08:24:25.423Z,20000
2016-04-30T08:25:25.238Z,18944
2016-04-30T08:26:25.397Z,17900
2016-04-30T08:27:25.367Z,17628
2016-04-30T08:28:25.340Z,17172
2016-04-30T08:29:25.311Z,17932
2016-04-30T08:30:25.141Z,18496
2016-04-30T08:31:25.270Z,19904
2016-04-30T08:32:25.241Z,19904
2016-04-30T08:33:25.228Z,19648
2016-04-30T08:34:26.136Z,17780
2016-04-30T08:35:25.186Z,16428
2016-04-30T08:36:25.188Z,15204
2016-04-30T08:37:25.145Z,14100
2016-04-30T08:38:25.132Z,12688
2016-04-30T08:39:25.118Z,11676
2016-04-30T08:40:25.090Z,10864
2016-04-30T08:41:25.077Z,10184
2016-04-30T08:42:25.049Z,9612
2016-04-30T08:43:25.035Z,9152
2016-04-30T08:44:24.867Z,8836
2016-04-30T08:45:25.010Z,8552
2016-04-30T08:46:24.810Z,8264
2016-04-30T08:47:24.968Z,8056
2016-04-30T08:48:24.924Z,7988
2016-04-30T08:49:25.677Z,7964
2016-04-30T08:50:24.884Z,8024
2016-04-30T08:51:24.854Z,8156
2016-04-30T08:52:24.842Z,8240
2016-04-30T08:53:24.657Z,8336
2016-04-30T08:54:24.628Z,8480
2016-04-30T08:55:24.771Z,8608
2016-04-30T08:56:24.758Z,8680
2016-04-30T08:57:24.730Z,8684
2016-04-30T08:58:24.545Z,8652
2016-04-30T08:59:24.688Z,8656
2016-04-30T09:00:24.660Z,8732
2016-04-30T09:01:24.647Z,8848
2016-04-30T09:02:24.603Z,9004
2016-04-30T09:03:24.589Z,9196
2016-04-30T09:04:24.436Z,9452
2016-04-30T09:05:24.549Z,9700
2016-04-30T09:06:24.364Z,9988
2016-04-30T09:07:24.507Z,10380
2016-04-30T09:08:24.322Z,10792
2016-04-30T09:09:24.450Z,11068
2016-04-30T09:10:24.437Z,11252
2016-04-30T09:11:24.439Z,11344
2016-04-30T09:12:24.238Z,11472
2016-04-30T09:13:24.226Z,11624
2016-04-30T09:14:24.354Z,11852
2016-04-30T09:15:24.325Z,12428
2016-04-30T09:16:24.312Z,13404
2016-04-30T09:17:24.268Z,14364
2016-04-30T09:18:24.255Z,15100
2016-04-30T09:19:24.398Z,16056
2016-04-30T09:20:24.229Z,17096
2016-04-30T09:21:24.045Z,18004
2016-04-30T09:22:24.173Z,18976
2016-04-30T09:23:24.159Z,19008
2016-04-30T09:24:24.131Z,19200
2016-04-30T09:25:23.978Z,18880
2016-04-30T09:26:24.090Z,18060
2016-04-30T09:27:24.060Z,18720
2016-04-30T09:28:24.047Z,19104
2016-04-30T09:29:23.878Z,19168
2016-04-30T09:30:24.006Z,18464
2016-04-30T09:31:23.961Z,17768
2016-04-30T09:32:23.808Z,17328
2016-04-30T09:33:23.795Z,16880
2016-04-30T09:34:24.673Z,16504
2016-04-30T09:35:23.910Z,15884
2016-04-30T09:36:23.867Z,15188
2016-04-30T09:37:23.853Z,14648
2016-04-30T09:38:23.668Z,14432
2016-04-30T09:39:23.811Z,14360
2016-04-30T09:40:23.627Z,14336
2016-04-30T09:41:23.771Z,14252
2016-04-30T09:42:23.757Z,14204
2016-04-30T09:43:23.729Z,14460
2016-04-30T09:44:23.699Z,15076
2016-04-30T09:45:23.703Z,15872
2016-04-30T09:46:23.502Z,16512
2016-04-30T09:47:23.629Z,16896
2016-04-30T09:48:23.633Z,17092
2016-04-30T09:49:24.573Z,17256
2016-04-30T09:50:23.575Z,17360
2016-04-30T09:51:23.407Z,17440
2016-04-30T09:52:23.550Z,17484
2016-04-30T09:53:23.506Z,17848
2016-04-30T09:54:23.493Z,18056
2016-04-30T09:55:23.495Z,18688
2016-04-30T09:56:23.451Z,19360
2016-04-30T09:57:23.125Z,19200
2016-04-30T09:58:23.409Z,18784
2016-04-30T09:59:23.412Z,19712
2016-04-30T10:00:23.368Z,20096
2016-04-30T10:01:23.199Z,20160
2016-04-30T10:02:23.327Z,20480
2016-04-30T10:03:23.314Z,20672
2016-04-30T10:04:23.958Z,19648
2016-04-30T10:05:23.256Z,19712
2016-04-30T10:06:23.244Z,19424
2016-04-30T10:07:23.090Z,19424
2016-04-30T10:08:23.202Z,19616
2016-04-30T10:09:23.189Z,19712
2016-04-30T10:10:23.160Z,19520
2016-04-30T10:11:23.007Z,19200
2016-04-30T10:12:23.119Z,18560
2016-04-30T10:13:23.106Z,17408
2016-04-30T10:14:22.922Z,16784
2016-04-30T10:15:23.065Z,16540
2016-04-30T10:16:22.896Z,16720
2016-04-30T10:17:22.695Z,17084
2016-04-30T10:18:22.995Z,17468
2016-04-30T10:19:23.435Z,16948
2016-04-30T10:20:22.812Z,16128
2016-04-30T10:21:22.800Z,15932
2016-04-30T10:22:22.912Z,16360
2016-04-30T10:23:22.899Z,16268
2016-04-30T10:24:22.887Z,16184
2016-04-30T10:25:22.873Z,16440
2016-04-30T10:26:22.828Z,16804
2016-04-30T10:27:22.676Z,17232
2016-04-30T10:28:22.818Z,17008
2016-04-30T10:29:22.634Z,16484
2016-04-30T10:30:22.762Z,15980
2016-04-30T10:31:22.592Z,15868
2016-04-30T10:32:22.751Z,16004
2016-04-30T10:33:22.707Z,16340
2016-04-30T10:34:22.991Z,16860
2016-04-30T10:35:22.650Z,17460
2016-04-30T10:36:22.496Z,17936
2016-04-30T10:37:22.468Z,18624
2016-04-30T10:38:22.455Z,18848
2016-04-30T10:39:22.427Z,19136
2016-04-30T10:40:22.570Z,19552
2016-04-30T10:41:22.541Z,19872
2016-04-30T10:42:22.372Z,19456
2016-04-30T10:43:22.516Z,18688
2016-04-30T10:44:22.486Z,17884
2016-04-30T10:45:22.474Z,17104
2016-04-30T10:46:22.289Z,15996
2016-04-30T10:47:22.276Z,14912
2016-04-30T10:48:22.419Z,14284
2016-04-30T10:49:22.735Z,14312
2016-04-30T10:50:22.206Z,14768
2016-04-30T10:51:22.349Z,15580
2016-04-30T10:52:22.007Z,16220
2016-04-30T10:53:22.324Z,16564
2016-04-30T10:54:22.311Z,16924
2016-04-30T10:55:21.954Z,16924
2016-04-30T10:56:22.238Z,16776
2016-04-30T10:57:22.225Z,16464
2016-04-30T10:58:22.228Z,15840
2016-04-30T10:59:22.027Z,15104
2016-04-30T11:00:22.014Z,14588
2016-04-30T11:01:22.142Z,14408
2016-04-30T11:02:21.988Z,14724
2016-04-30T11:03:21.960Z,15268
2016-04-30T11:04:21.962Z,15520
2016-04-30T11:05:22.074Z,15504
2016-04-30T11:06:21.906Z,15084
2016-04-30T11:07:22.033Z,13968
2016-04-30T11:08:21.847Z,12428
2016-04-30T11:09:21.851Z,10964
2016-04-30T11:10:21.964Z,9892
2016-04-30T11:11:21.794Z,9240
2016-04-30T11:12:21.936Z,9068
2016-04-30T11:13:21.908Z,8864
2016-04-30T11:14:21.730Z,8720
2016-04-30T11:15:21.869Z,9292
2016-04-30T11:16:21.845Z,10368
2016-04-30T11:17:21.874Z,11072
2016-04-30T11:18:21.799Z,11356
2016-04-30T11:19:22.115Z,11136
2016-04-30T11:20:21.602Z,10504
2016-04-30T11:21:21.729Z,9788
2016-04-30T11:22:21.419Z,8856
2016-04-30T11:23:21.687Z,8260
2016-04-30T11:24:21.518Z,8104
2016-04-30T11:25:21.646Z,8132
2016-04-30T11:26:21.617Z,8248
2016-04-30T11:27:21.589Z,8432
2016-04-30T11:28:21.592Z,8652
2016-04-30T11:29:21.562Z,8704
2016-04-30T11:30:21.550Z,8644
2016-04-30T11:31:21.522Z,8508
2016-04-30T11:32:21.508Z,8476
2016-04-30T11:33:21.480Z,8868
2016-04-30T11:34:21.326Z,10072
2016-04-30T11:35:21.439Z,11580
2016-04-30T11:36:21.442Z,12964
2016-04-30T11:37:21.241Z,14388
2016-04-30T11:38:21.368Z,15624
2016-04-30T11:39:21.355Z,16896
2016-04-30T11:40:21.358Z,18108
2016-04-30T11:41:21.157Z,18092
2016-04-30T11:42:21.302Z,17932
2016-04-30T11:43:21.272Z,17848
2016-04-30T11:44:21.244Z,17912
2016-04-30T11:45:21.231Z,18180
2016-04-30T11:46:21.203Z,18944
2016-04-30T11:47:21.205Z,19744
2016-04-30T11:48:21.160Z,20192
2016-04-30T11:49:23.163Z,20064
2016-04-30T11:50:21.135Z,19712
2016-04-30T11:51:21.107Z,19392
2016-04-30T11:52:21.093Z,19552
2016-04-30T11:53:21.065Z,20064
2016-04-30T11:54:21.051Z,20544
2016-04-30T11:55:21.023Z,20544
2016-04-30T11:56:21.010Z,20416
2016-04-30T11:57:20.982Z,20736
2016-04-30T11:58:20.953Z,20768
2016-04-30T11:59:20.800Z,20192
2016-04-30T12:00:20.771Z,19968
2016-04-30T12:01:20.899Z,19840
2016-04-30T12:02:20.902Z,19456
2016-04-30T12:03:20.872Z,19360
2016-04-30T12:04:20.703Z,18976
2016-04-30T12:05:20.676Z,18752
2016-04-30T12:06:20.662Z,18104
2016-04-30T12:07:20.806Z,17188
2016-04-30T12:08:20.778Z,16620
2016-04-30T12:09:20.764Z,15896
2016-04-30T12:10:20.719Z,15712
2016-04-30T12:11:20.707Z,16344
2016-04-30T12:12:20.694Z,16916
2016-04-30T12:13:20.681Z,17732
2016-04-30T12:14:20.637Z,18064
2016-04-30T12:15:20.483Z,19008
2016-04-30T12:16:20.627Z,19552
2016-04-30T12:17:20.598Z,20736
2016-04-30T12:18:20.569Z,20736
2016-04-30T12:19:20.588Z,19136
2016-04-30T12:20:20.544Z,19680
2016-04-30T12:21:20.374Z,20192
2016-04-30T12:22:20.487Z,19296
2016-04-30T12:23:20.739Z,18312
2016-04-30T12:24:20.460Z,17988
2016-04-30T12:25:20.448Z,17744
2016-04-30T12:26:20.279Z,17060
2016-04-30T12:27:20.235Z,16964
2016-04-30T12:28:20.221Z,14708
2016-04-30T12:29:20.365Z,14360
2016-04-30T12:30:20.352Z,16700
2016-04-30T12:31:20.323Z,18252
2016-04-30T12:32:20.325Z,19488
2016-04-30T12:33:20.281Z,17600
2016-04-30T12:34:20.300Z,15132
2016-04-30T12:35:20.240Z,15564
2016-04-30T12:36:20.071Z,17552
2016-04-30T12:37:20.214Z,17180
2016-04-30T12:38:20.213Z,17472
2016-04-30T12:39:20.240Z,19136
2016-04-30T12:40:20.237Z,19136
2016-04-30T12:41:20.124Z,17392
2016-04-30T12:42:20.292Z,15720
2016-04-30T12:43:20.297Z,15192
2016-04-30T12:44:20.143Z,15960
2016-04-30T12:45:20.145Z,16144
2016-04-30T12:46:20.303Z,17380
2016-04-30T12:47:20.289Z,17512
2016-04-30T12:48:19.975Z,16424
2016-04-30T12:49:20.296Z,16884
2016-04-30T12:50:20.101Z,16752
2016-04-30T12:51:20.249Z,15880
2016-04-30T12:52:20.226Z,15232
2016-04-30T12:53:20.217Z,14488
2016-04-30T12:54:20.191Z,14540
2016-04-30T12:55:20.039Z,14532
2016-04-30T12:56:20.013Z,14600
2016-04-30T12:57:19.986Z,14464
2016-04-30T12:58:20.131Z,14864
2016-04-30T12:59:20.150Z,15568
2016-04-30T13:00:20.090Z,16344
2016-04-30T13:01:20.079Z,16824
2016-04-30T13:02:20.049Z,17176
2016-04-30T13:03:19.881Z,17672
2016-04-30T13:04:20.041Z,17408
2016-04-30T13:05:19.841Z,17072
2016-04-30T13:06:19.844Z,16260
2016-04-30T13:07:19.814Z,15048
2016-04-30T13:08:19.630Z,13928
2016-04-30T13:09:19.930Z,13060
2016-04-30T13:10:19.901Z,12460
2016-04-30T13:11:19.873Z,12584
2016-04-30T13:12:19.704Z,13024
2016-04-30T13:13:19.550Z,13328
2016-04-30T13:14:19.818Z,13524
2016-04-30T13:15:19.805Z,13348
2016-04-30T13:16:19.636Z,13000
2016-04-30T13:17:19.764Z,13092
2016-04-30T13:18:19.752Z,12988
2016-04-30T13:19:20.848Z,13020
2016-04-30T13:20:19.412Z,12868
2016-04-30T13:21:19.696Z,13040
2016-04-30T13:22:19.668Z,12984
2016-04-30T13:23:19.671Z,12352
2016-04-30T13:24:19.627Z,11284
2016-04-30T13:25:19.441Z,10464
2016-04-30T13:26:19.616Z,9812
2016-04-30T13:27:19.588Z,9228
2016-04-30T13:28:19.574Z,8324
2016-04-30T13:29:19.531Z,7544
2016-04-30T13:30:19.361Z,6928
2016-04-30T13:31:19.489Z,6488
2016-04-30T13:32:19.304Z,6148
2016-04-30T13:33:19.448Z,5576
2016-04-30T13:34:19.748Z,5004